sensor_id;sensor_type;location;lat;lon;timestamp;P1;durP1;ratioP1;P2;durP2;ratioP2
3274;SDS011;1649;53.672;10.064;2023-06-14T00:01:38;9.33;;;4.47;;
3274;SDS011;1649;53.672;10.064;2023-06-14T00:04:04;9.10;;;4.10;;
3274;SDS011;1649;53.672;10.064;2023-06-14T00:06:30;8.67;;;4.20;;
3274;SDS011;1649;53.672;10.064;2023-06-14T00:08:56;10.57;;;4.23;;
3274;SDS011;1649;53.672;10.064;2023-06-14T00:11:21;7.33;;;4.73;;
3274;SDS011;1649;53.672;10.064;2023-06-14T00:13:47;10.23;;;4.83;;
3274;SDS011;1649;53.672;10.064;2023-06-14T00:16:12;8.37;;;4.20;;
3274;SDS011;1649;53.672;10.064;2023-06-14T00:18:38;9.83;;;4.40;;
3274;SDS011;1649;53.672;10.064;2023-06-14T00:21:04;10.50;;;5.80;;
3274;SDS011;1649;53.672;10.064;2023-06-14T00:23:30;10.17;;;4.70;;
3274;SDS011;1649;53.672;10.064;2023-06-14T00:25:55;12.00;;;4.57;;
3274;SDS011;1649;53.672;10.064;2023-06-14T00:28:21;10.07;;;5.33;;
3274;SDS011;1649;53.672;10.064;2023-06-14T00:30:47;8.63;;;4.87;;
3274;SDS011;1649;53.672;10.064;2023-06-14T00:33:12;10.50;;;5.73;;
3274;SDS011;1649;53.672;10.064;2023-06-14T00:35:38;8.80;;;5.20;;
3274;SDS011;1649;53.672;10.064;2023-06-14T00:38:04;10.77;;;5.10;;
3274;SDS011;1649;53.672;10.064;2023-06-14T00:40:30;10.00;;;4.93;;
3274;SDS011;1649;53.672;10.064;2023-06-14T00:42:55;9.30;;;5.63;;
3274;SDS011;1649;53.672;10.064;2023-06-14T00:45:21;10.17;;;5.33;;
3274;SDS011;1649;53.672;10.064;2023-06-14T00:47:46;12.27;;;5.37;;
3274;SDS011;1649;53.672;10.064;2023-06-14T00:50:16;10.67;;;5.33;;
3274;SDS011;1649;53.672;10.064;2023-06-14T00:52:41;9.67;;;5.53;;
3274;SDS011;1649;53.672;10.064;2023-06-14T00:55:07;12.27;;;5.40;;
3274;SDS011;1649;53.672;10.064;2023-06-14T00:57:33;10.00;;;5.20;;
3274;SDS011;1649;53.672;10.064;2023-06-14T01:00:02;11.20;;;4.97;;
3274;SDS011;1649;53.672;10.064;2023-06-14T01:02:29;10.33;;;5.77;;
3274;SDS011;1649;53.672;10.064;2023-06-14T01:04:55;10.13;;;6.20;;
3274;SDS011;1649;53.672;10.064;2023-06-14T01:15:32;11.00;;;5.80;;
3274;SDS011;1649;53.672;10.064;2023-06-14T01:17:59;14.30;;;6.70;;
3274;SDS011;1649;53.672;10.064;2023-06-14T01:20:28;11.83;;;5.53;;
3274;SDS011;1649;53.672;10.064;2023-06-14T01:22:55;11.30;;;5.80;;
3274;SDS011;1649;53.672;10.064;2023-06-14T01:25:21;10.33;;;6.00;;
3274;SDS011;1649;53.672;10.064;2023-06-14T01:27:51;9.27;;;5.47;;
3274;SDS011;1649;53.672;10.064;2023-06-14T01:30:20;10.33;;;5.30;;
3274;SDS011;1649;53.672;10.064;2023-06-14T01:32:47;10.77;;;5.60;;
3274;SDS011;1649;53.672;10.064;2023-06-14T01:35:15;10.40;;;5.53;;
3274;SDS011;1649;53.672;10.064;2023-06-14T01:37:41;10.00;;;5.63;;
3274;SDS011;1649;53.672;10.064;2023-06-14T01:40:08;11.70;;;6.47;;
3274;SDS011;1649;53.672;10.064;2023-06-14T01:42:36;9.33;;;5.10;;
3274;SDS011;1649;53.672;10.064;2023-06-14T01:45:04;10.33;;;5.60;;
3274;SDS011;1649;53.672;10.064;2023-06-14T01:47:32;10.50;;;5.50;;
3274;SDS011;1649;53.672;10.064;2023-06-14T01:49:58;13.10;;;6.43;;
3274;SDS011;1649;53.672;10.064;2023-06-14T01:52:24;12.60;;;6.20;;
3274;SDS011;1649;53.672;10.064;2023-06-14T01:54:49;11.47;;;6.60;;
3274;SDS011;1649;53.672;10.064;2023-06-14T01:57:15;12.13;;;6.53;;
3274;SDS011;1649;53.672;10.064;2023-06-14T01:59:41;11.50;;;7.17;;
3274;SDS011;1649;53.672;10.064;2023-06-14T02:02:06;12.13;;;7.27;;
3274;SDS011;1649;53.672;10.064;2023-06-14T02:04:32;10.90;;;7.10;;
3274;SDS011;1649;53.672;10.064;2023-06-14T02:06:58;10.73;;;5.90;;
3274;SDS011;1649;53.672;10.064;2023-06-14T02:09:23;11.27;;;6.30;;
3274;SDS011;1649;53.672;10.064;2023-06-14T02:11:49;11.87;;;6.97;;
3274;SDS011;1649;53.672;10.064;2023-06-14T02:14:14;9.53;;;6.20;;
3274;SDS011;1649;53.672;10.064;2023-06-14T02:16:41;13.30;;;6.37;;
3274;SDS011;1649;53.672;10.064;2023-06-14T02:19:13;11.40;;;6.00;;
3274;SDS011;1649;53.672;10.064;2023-06-14T02:21:42;11.67;;;6.67;;
3274;SDS011;1649;53.672;10.064;2023-06-14T02:24:08;12.37;;;6.43;;
3274;SDS011;1649;53.672;10.064;2023-06-14T02:26:34;12.90;;;6.30;;
3274;SDS011;1649;53.672;10.064;2023-06-14T02:29:00;11.30;;;6.60;;
3274;SDS011;1649;53.672;10.064;2023-06-14T02:31:26;10.90;;;6.10;;
3274;SDS011;1649;53.672;10.064;2023-06-14T02:33:52;9.97;;;6.30;;
3274;SDS011;1649;53.672;10.064;2023-06-14T02:36:17;10.67;;;6.17;;
3274;SDS011;1649;53.672;10.064;2023-06-14T02:38:43;14.13;;;6.13;;
3274;SDS011;1649;53.672;10.064;2023-06-14T02:41:08;11.17;;;6.13;;
3274;SDS011;1649;53.672;10.064;2023-06-14T02:43:34;10.57;;;6.30;;
3274;SDS011;1649;53.672;10.064;2023-06-14T02:46:00;9.53;;;5.77;;
3274;SDS011;1649;53.672;10.064;2023-06-14T02:48:26;11.80;;;6.83;;
3274;SDS011;1649;53.672;10.064;2023-06-14T02:50:52;9.70;;;6.73;;
3274;SDS011;1649;53.672;10.064;2023-06-14T02:53:18;9.23;;;6.00;;
3274;SDS011;1649;53.672;10.064;2023-06-14T02:55:43;9.20;;;5.70;;
3274;SDS011;1649;53.672;10.064;2023-06-14T02:58:09;10.03;;;6.37;;
3274;SDS011;1649;53.672;10.064;2023-06-14T03:00:34;9.83;;;5.80;;
3274;SDS011;1649;53.672;10.064;2023-06-14T03:03:01;10.07;;;6.07;;
3274;SDS011;1649;53.672;10.064;2023-06-14T03:05:26;10.70;;;6.70;;
3274;SDS011;1649;53.672;10.064;2023-06-14T03:07:53;13.90;;;7.10;;
3274;SDS011;1649;53.672;10.064;2023-06-14T03:10:18;12.00;;;6.70;;
3274;SDS011;1649;53.672;10.064;2023-06-14T03:12:44;11.57;;;6.60;;
3274;SDS011;1649;53.672;10.064;2023-06-14T03:15:10;12.60;;;7.07;;
3274;SDS011;1649;53.672;10.064;2023-06-14T03:17:37;12.50;;;6.70;;
3274;SDS011;1649;53.672;10.064;2023-06-14T03:20:04;9.90;;;5.80;;
3274;SDS011;1649;53.672;10.064;2023-06-14T03:22:30;11.30;;;7.00;;
3274;SDS011;1649;53.672;10.064;2023-06-14T03:24:58;9.97;;;6.30;;
3274;SDS011;1649;53.672;10.064;2023-06-14T03:27:24;13.70;;;5.87;;
3274;SDS011;1649;53.672;10.064;2023-06-14T03:29:50;12.03;;;5.90;;
3274;SDS011;1649;53.672;10.064;2023-06-14T03:32:16;12.57;;;6.63;;
3274;SDS011;1649;53.672;10.064;2023-06-14T03:34:41;12.73;;;6.83;;
3274;SDS011;1649;53.672;10.064;2023-06-14T03:37:07;11.03;;;6.37;;
3274;SDS011;1649;53.672;10.064;2023-06-14T03:39:33;11.00;;;6.20;;
3274;SDS011;1649;53.672;10.064;2023-06-14T03:41:58;11.20;;;6.40;;
3274;SDS011;1649;53.672;10.064;2023-06-14T03:44:26;11.60;;;6.37;;
3274;SDS011;1649;53.672;10.064;2023-06-14T03:46:51;11.27;;;6.93;;
3274;SDS011;1649;53.672;10.064;2023-06-14T03:49:17;12.70;;;7.60;;
3274;SDS011;1649;53.672;10.064;2023-06-14T03:51:43;12.83;;;6.40;;
3274;SDS011;1649;53.672;10.064;2023-06-14T03:54:09;10.20;;;6.33;;
3274;SDS011;1649;53.672;10.064;2023-06-14T03:56:35;12.63;;;6.70;;
3274;SDS011;1649;53.672;10.064;2023-06-14T03:59:01;9.50;;;5.80;;
3274;SDS011;1649;53.672;10.064;2023-06-14T04:01:27;11.20;;;6.00;;
3274;SDS011;1649;53.672;10.064;2023-06-14T04:03:55;11.23;;;6.37;;
3274;SDS011;1649;53.672;10.064;2023-06-14T04:06:21;10.63;;;6.63;;
3274;SDS011;1649;53.672;10.064;2023-06-14T04:08:49;11.23;;;6.03;;
3274;SDS011;1649;53.672;10.064;2023-06-14T04:11:15;11.33;;;6.63;;
3274;SDS011;1649;53.672;10.064;2023-06-14T04:13:41;10.57;;;6.43;;
3274;SDS011;1649;53.672;10.064;2023-06-14T04:16:07;9.03;;;5.70;;
3274;SDS011;1649;53.672;10.064;2023-06-14T04:18:32;11.37;;;6.90;;
3274;SDS011;1649;53.672;10.064;2023-06-14T04:20:58;16.60;;;8.90;;
3274;SDS011;1649;53.672;10.064;2023-06-14T04:23:24;10.50;;;6.07;;
3274;SDS011;1649;53.672;10.064;2023-06-14T04:25:49;11.80;;;6.00;;
3274;SDS011;1649;53.672;10.064;2023-06-14T04:28:15;11.43;;;6.37;;
3274;SDS011;1649;53.672;10.064;2023-06-14T04:30:42;13.87;;;7.10;;
3274;SDS011;1649;53.672;10.064;2023-06-14T04:33:08;11.20;;;6.80;;
3274;SDS011;1649;53.672;10.064;2023-06-14T04:35:35;10.93;;;6.57;;
3274;SDS011;1649;53.672;10.064;2023-06-14T04:38:02;11.67;;;6.07;;
3274;SDS011;1649;53.672;10.064;2023-06-14T04:40:30;10.80;;;6.30;;
3274;SDS011;1649;53.672;10.064;2023-06-14T04:42:56;9.20;;;6.80;;
3274;SDS011;1649;53.672;10.064;2023-06-14T04:45:22;14.57;;;6.57;;
3274;SDS011;1649;53.672;10.064;2023-06-14T04:47:48;12.33;;;6.33;;
3274;SDS011;1649;53.672;10.064;2023-06-14T04:50:15;11.77;;;6.70;;
3274;SDS011;1649;53.672;10.064;2023-06-14T04:52:41;13.40;;;7.07;;
3274;SDS011;1649;53.672;10.064;2023-06-14T04:55:07;10.40;;;6.20;;
3274;SDS011;1649;53.672;10.064;2023-06-14T04:57:33;18.07;;;6.23;;
3274;SDS011;1649;53.672;10.064;2023-06-14T05:00:00;15.83;;;7.07;;
3274;SDS011;1649;53.672;10.064;2023-06-14T05:02:26;9.63;;;6.20;;
3274;SDS011;1649;53.672;10.064;2023-06-14T05:04:52;12.20;;;6.00;;
3274;SDS011;1649;53.672;10.064;2023-06-14T05:07:18;11.37;;;5.83;;
3274;SDS011;1649;53.672;10.064;2023-06-14T05:09:44;11.93;;;5.70;;
3274;SDS011;1649;53.672;10.064;2023-06-14T05:12:10;10.47;;;5.93;;
3274;SDS011;1649;53.672;10.064;2023-06-14T05:14:35;9.80;;;5.53;;
3274;SDS011;1649;53.672;10.064;2023-06-14T05:17:01;11.13;;;5.57;;
3274;SDS011;1649;53.672;10.064;2023-06-14T05:19:27;11.67;;;5.70;;
3274;SDS011;1649;53.672;10.064;2023-06-14T05:21:53;11.53;;;6.23;;
3274;SDS011;1649;53.672;10.064;2023-06-14T05:24:19;10.13;;;5.60;;
3274;SDS011;1649;53.672;10.064;2023-06-14T05:26:45;11.43;;;6.93;;
3274;SDS011;1649;53.672;10.064;2023-06-14T05:29:11;11.73;;;6.00;;
3274;SDS011;1649;53.672;10.064;2023-06-14T05:31:36;13.97;;;6.33;;
3274;SDS011;1649;53.672;10.064;2023-06-14T05:34:02;11.77;;;6.73;;
3274;SDS011;1649;53.672;10.064;2023-06-14T05:36:28;11.23;;;5.70;;
3274;SDS011;1649;53.672;10.064;2023-06-14T05:38:54;10.63;;;6.30;;
3274;SDS011;1649;53.672;10.064;2023-06-14T05:41:23;10.20;;;5.33;;
3274;SDS011;1649;53.672;10.064;2023-06-14T05:43:50;14.43;;;5.50;;
3274;SDS011;1649;53.672;10.064;2023-06-14T05:46:15;11.20;;;5.57;;
3274;SDS011;1649;53.672;10.064;2023-06-14T05:48:41;9.70;;;5.70;;
3274;SDS011;1649;53.672;10.064;2023-06-14T05:51:06;10.70;;;6.00;;
3274;SDS011;1649;53.672;10.064;2023-06-14T05:53:33;10.10;;;5.40;;
3274;SDS011;1649;53.672;10.064;2023-06-14T05:55:59;11.23;;;5.20;;
3274;SDS011;1649;53.672;10.064;2023-06-14T05:58:25;9.37;;;5.13;;
3274;SDS011;1649;53.672;10.064;2023-06-14T06:00:50;10.90;;;5.40;;
3274;SDS011;1649;53.672;10.064;2023-06-14T06:03:18;11.17;;;5.20;;
3274;SDS011;1649;53.672;10.064;2023-06-14T06:05:44;12.07;;;5.37;;
3274;SDS011;1649;53.672;10.064;2023-06-14T06:08:09;11.73;;;5.47;;
3274;SDS011;1649;53.672;10.064;2023-06-14T06:10:35;11.87;;;5.10;;
3274;SDS011;1649;53.672;10.064;2023-06-14T06:13:01;11.77;;;5.73;;
3274;SDS011;1649;53.672;10.064;2023-06-14T06:15:26;9.77;;;5.50;;
3274;SDS011;1649;53.672;10.064;2023-06-14T06:17:52;8.40;;;5.03;;
3274;SDS011;1649;53.672;10.064;2023-06-14T06:20:17;9.70;;;4.73;;
3274;SDS011;1649;53.672;10.064;2023-06-14T06:22:43;8.83;;;5.40;;
3274;SDS011;1649;53.672;10.064;2023-06-14T06:25:08;8.93;;;5.23;;
3274;SDS011;1649;53.672;10.064;2023-06-14T06:27:34;12.60;;;5.13;;
3274;SDS011;1649;53.672;10.064;2023-06-14T06:30:02;20.40;;;5.00;;
3274;SDS011;1649;53.672;10.064;2023-06-14T06:32:28;8.57;;;4.80;;
3274;SDS011;1649;53.672;10.064;2023-06-14T06:34:54;10.00;;;5.03;;
3274;SDS011;1649;53.672;10.064;2023-06-14T06:37:19;9.57;;;4.80;;
3274;SDS011;1649;53.672;10.064;2023-06-14T06:39:45;9.40;;;4.60;;
3274;SDS011;1649;53.672;10.064;2023-06-14T06:42:11;9.67;;;5.00;;
3274;SDS011;1649;53.672;10.064;2023-06-14T06:44:37;11.00;;;4.43;;
3274;SDS011;1649;53.672;10.064;2023-06-14T06:47:02;8.93;;;4.40;;
3274;SDS011;1649;53.672;10.064;2023-06-14T06:49:28;11.93;;;4.60;;
3274;SDS011;1649;53.672;10.064;2023-06-14T06:52:00;7.20;;;4.50;;
3274;SDS011;1649;53.672;10.064;2023-06-14T06:54:30;7.90;;;4.77;;
3274;SDS011;1649;53.672;10.064;2023-06-14T06:56:56;8.20;;;4.50;;
3274;SDS011;1649;53.672;10.064;2023-06-14T06:59:21;9.77;;;4.30;;
3274;SDS011;1649;53.672;10.064;2023-06-14T07:01:47;8.50;;;4.50;;
3274;SDS011;1649;53.672;10.064;2023-06-14T07:04:13;10.60;;;4.20;;
3274;SDS011;1649;53.672;10.064;2023-06-14T07:06:39;8.17;;;4.00;;
3274;SDS011;1649;53.672;10.064;2023-06-14T07:09:04;8.50;;;4.27;;
3274;SDS011;1649;53.672;10.064;2023-06-14T07:11:33;8.50;;;4.50;;
3274;SDS011;1649;53.672;10.064;2023-06-14T07:13:59;8.70;;;4.10;;
3274;SDS011;1649;53.672;10.064;2023-06-14T07:16:24;10.27;;;3.93;;
3274;SDS011;1649;53.672;10.064;2023-06-14T07:18:50;8.80;;;4.17;;
3274;SDS011;1649;53.672;10.064;2023-06-14T07:21:16;10.10;;;4.20;;
3274;SDS011;1649;53.672;10.064;2023-06-14T07:23:41;9.43;;;4.50;;
3274;SDS011;1649;53.672;10.064;2023-06-14T07:26:07;6.73;;;3.50;;
3274;SDS011;1649;53.672;10.064;2023-06-14T07:28:32;7.83;;;3.70;;
3274;SDS011;1649;53.672;10.064;2023-06-14T07:30:58;6.50;;;3.87;;
3274;SDS011;1649;53.672;10.064;2023-06-14T07:33:23;10.63;;;3.50;;
3274;SDS011;1649;53.672;10.064;2023-06-14T07:35:49;7.90;;;3.20;;
3274;SDS011;1649;53.672;10.064;2023-06-14T07:38:15;10.10;;;3.40;;
3274;SDS011;1649;53.672;10.064;2023-06-14T07:40:40;7.07;;;3.23;;
3274;SDS011;1649;53.672;10.064;2023-06-14T07:43:06;6.53;;;3.30;;
3274;SDS011;1649;53.672;10.064;2023-06-14T07:45:31;9.50;;;3.60;;
3274;SDS011;1649;53.672;10.064;2023-06-14T07:47:57;6.47;;;3.23;;
3274;SDS011;1649;53.672;10.064;2023-06-14T07:50:22;8.10;;;2.87;;
3274;SDS011;1649;53.672;10.064;2023-06-14T07:52:48;6.07;;;3.20;;
3274;SDS011;1649;53.672;10.064;2023-06-14T07:55:14;6.13;;;2.87;;
3274;SDS011;1649;53.672;10.064;2023-06-14T07:57:40;6.43;;;3.10;;
3274;SDS011;1649;53.672;10.064;2023-06-14T08:00:06;6.83;;;3.10;;
3274;SDS011;1649;53.672;10.064;2023-06-14T08:02:32;6.40;;;2.70;;
3274;SDS011;1649;53.672;10.064;2023-06-14T08:04:57;5.70;;;2.90;;
3274;SDS011;1649;53.672;10.064;2023-06-14T08:07:23;5.93;;;2.80;;
3274;SDS011;1649;53.672;10.064;2023-06-14T08:09:49;6.00;;;3.00;;
3274;SDS011;1649;53.672;10.064;2023-06-14T08:12:15;7.10;;;2.97;;
3274;SDS011;1649;53.672;10.064;2023-06-14T08:14:41;7.87;;;2.93;;
3274;SDS011;1649;53.672;10.064;2023-06-14T08:17:07;7.60;;;3.27;;
3274;SDS011;1649;53.672;10.064;2023-06-14T08:19:33;7.83;;;3.00;;
3274;SDS011;1649;53.672;10.064;2023-06-14T08:21:58;6.83;;;2.77;;
3274;SDS011;1649;53.672;10.064;2023-06-14T08:24:25;6.10;;;3.23;;
3274;SDS011;1649;53.672;10.064;2023-06-14T08:26:52;6.80;;;2.50;;
3274;SDS011;1649;53.672;10.064;2023-06-14T08:29:18;6.77;;;2.50;;
3274;SDS011;1649;53.672;10.064;2023-06-14T08:31:43;6.70;;;3.03;;
3274;SDS011;1649;53.672;10.064;2023-06-14T08:34:09;6.27;;;3.20;;
3274;SDS011;1649;53.672;10.064;2023-06-14T08:36:35;5.60;;;3.03;;
3274;SDS011;1649;53.672;10.064;2023-06-14T08:39:01;5.70;;;3.00;;
3274;SDS011;1649;53.672;10.064;2023-06-14T08:41:26;5.77;;;3.00;;
3274;SDS011;1649;53.672;10.064;2023-06-14T08:43:54;7.50;;;3.47;;
3274;SDS011;1649;53.672;10.064;2023-06-14T08:46:21;6.30;;;2.73;;
3274;SDS011;1649;53.672;10.064;2023-06-14T08:48:50;6.93;;;3.27;;
3274;SDS011;1649;53.672;10.064;2023-06-14T08:51:22;6.00;;;2.93;;
3274;SDS011;1649;53.672;10.064;2023-06-14T08:53:54;6.40;;;3.33;;
3274;SDS011;1649;53.672;10.064;2023-06-14T08:56:26;6.70;;;3.40;;
3274;SDS011;1649;53.672;10.064;2023-06-14T08:58:53;5.77;;;3.40;;
3274;SDS011;1649;53.672;10.064;2023-06-14T09:01:19;8.20;;;3.30;;
3274;SDS011;1649;53.672;10.064;2023-06-14T09:03:47;6.40;;;3.20;;
3274;SDS011;1649;53.672;10.064;2023-06-14T09:06:13;8.50;;;3.47;;
3274;SDS011;1649;53.672;10.064;2023-06-14T09:08:41;5.27;;;2.90;;
3274;SDS011;1649;53.672;10.064;2023-06-14T09:11:08;7.23;;;3.67;;
3274;SDS011;1649;53.672;10.064;2023-06-14T09:13:39;6.37;;;3.50;;
3274;SDS011;1649;53.672;10.064;2023-06-14T09:16:06;8.17;;;3.20;;
3274;SDS011;1649;53.672;10.064;2023-06-14T09:18:42;6.80;;;3.77;;
3274;SDS011;1649;53.672;10.064;2023-06-14T09:21:12;8.33;;;3.47;;
3274;SDS011;1649;53.672;10.064;2023-06-14T09:23:39;7.53;;;3.50;;
3274;SDS011;1649;53.672;10.064;2023-06-14T09:26:13;7.10;;;3.60;;
3274;SDS011;1649;53.672;10.064;2023-06-14T09:28:44;5.90;;;3.80;;
3274;SDS011;1649;53.672;10.064;2023-06-14T09:31:17;7.00;;;3.40;;
3274;SDS011;1649;53.672;10.064;2023-06-14T09:33:43;6.37;;;3.17;;
3274;SDS011;1649;53.672;10.064;2023-06-14T09:36:14;6.83;;;3.70;;
3274;SDS011;1649;53.672;10.064;2023-06-14T09:38:56;7.33;;;3.17;;
3274;SDS011;1649;53.672;10.064;2023-06-14T09:41:42;6.10;;;3.47;;
3274;SDS011;1649;53.672;10.064;2023-06-14T09:44:08;10.03;;;3.50;;
3274;SDS011;1649;53.672;10.064;2023-06-14T09:46:36;6.10;;;3.40;;
3274;SDS011;1649;53.672;10.064;2023-06-14T09:49:02;7.33;;;3.17;;
3274;SDS011;1649;53.672;10.064;2023-06-14T09:51:29;7.67;;;3.53;;
3274;SDS011;1649;53.672;10.064;2023-06-14T09:54:01;7.67;;;3.50;;
3274;SDS011;1649;53.672;10.064;2023-06-14T09:56:30;8.90;;;3.60;;
3274;SDS011;1649;53.672;10.064;2023-06-14T09:58:58;21.93;;;3.80;;
3274;SDS011;1649;53.672;10.064;2023-06-14T10:01:24;6.40;;;3.57;;
3274;SDS011;1649;53.672;10.064;2023-06-14T10:03:55;10.33;;;3.50;;
3274;SDS011;1649;53.672;10.064;2023-06-14T10:06:40;5.97;;;3.30;;
3274;SDS011;1649;53.672;10.064;2023-06-14T10:09:10;8.43;;;3.67;;
3274;SDS011;1649;53.672;10.064;2023-06-14T10:11:36;7.73;;;3.80;;
3274;SDS011;1649;53.672;10.064;2023-06-14T10:14:08;10.10;;;4.00;;
3274;SDS011;1649;53.672;10.064;2023-06-14T10:16:37;6.17;;;3.53;;
3274;SDS011;1649;53.672;10.064;2023-06-14T10:19:11;8.03;;;3.73;;
3274;SDS011;1649;53.672;10.064;2023-06-14T10:21:46;6.03;;;3.57;;
3274;SDS011;1649;53.672;10.064;2023-06-14T10:24:26;8.00;;;4.07;;
3274;SDS011;1649;53.672;10.064;2023-06-14T10:26:56;9.00;;;3.40;;
3274;SDS011;1649;53.672;10.064;2023-06-14T10:29:23;6.07;;;3.67;;
3274;SDS011;1649;53.672;10.064;2023-06-14T10:31:50;12.80;;;3.80;;
3274;SDS011;1649;53.672;10.064;2023-06-14T10:34:24;10.70;;;3.50;;
3274;SDS011;1649;53.672;10.064;2023-06-14T10:37:07;6.70;;;4.10;;
3274;SDS011;1649;53.672;10.064;2023-06-14T10:39:40;8.67;;;4.20;;
3274;SDS011;1649;53.672;10.064;2023-06-14T10:42:07;6.40;;;3.33;;
3274;SDS011;1649;53.672;10.064;2023-06-14T10:44:34;6.33;;;3.33;;
3274;SDS011;1649;53.672;10.064;2023-06-14T10:47:05;8.17;;;3.60;;
3274;SDS011;1649;53.672;10.064;2023-06-14T10:52:09;9.20;;;4.00;;
3274;SDS011;1649;53.672;10.064;2023-06-14T10:57:40;7.40;;;4.03;;
3274;SDS011;1649;53.672;10.064;2023-06-14T11:00:08;6.30;;;3.70;;
3274;SDS011;1649;53.672;10.064;2023-06-14T11:02:48;6.60;;;3.83;;
3274;SDS011;1649;53.672;10.064;2023-06-14T11:05:18;7.50;;;3.47;;
3274;SDS011;1649;53.672;10.064;2023-06-14T11:08:14;7.50;;;3.30;;
3274;SDS011;1649;53.672;10.064;2023-06-14T11:10:43;10.40;;;4.00;;
3274;SDS011;1649;53.672;10.064;2023-06-14T11:13:10;7.47;;;3.73;;
3274;SDS011;1649;53.672;10.064;2023-06-14T11:15:36;8.20;;;3.93;;
3274;SDS011;1649;53.672;10.064;2023-06-14T11:18:06;6.50;;;3.80;;
3274;SDS011;1649;53.672;10.064;2023-06-14T11:20:34;7.27;;;3.63;;
3274;SDS011;1649;53.672;10.064;2023-06-14T11:23:02;8.33;;;3.90;;
3274;SDS011;1649;53.672;10.064;2023-06-14T11:25:29;7.00;;;3.53;;
3274;SDS011;1649;53.672;10.064;2023-06-14T11:27:55;11.43;;;3.57;;
3274;SDS011;1649;53.672;10.064;2023-06-14T11:30:20;8.50;;;3.80;;
3274;SDS011;1649;53.672;10.064;2023-06-14T11:32:47;7.80;;;4.10;;
3274;SDS011;1649;53.672;10.064;2023-06-14T11:35:14;9.40;;;3.40;;
3274;SDS011;1649;53.672;10.064;2023-06-14T11:37:40;6.37;;;3.00;;
3274;SDS011;1649;53.672;10.064;2023-06-14T11:40:07;8.63;;;3.40;;
3274;SDS011;1649;53.672;10.064;2023-06-14T11:42:35;9.40;;;3.93;;
3274;SDS011;1649;53.672;10.064;2023-06-14T11:45:01;7.20;;;3.37;;
3274;SDS011;1649;53.672;10.064;2023-06-14T11:47:34;8.33;;;3.53;;
3274;SDS011;1649;53.672;10.064;2023-06-14T11:50:04;6.03;;;3.07;;
3274;SDS011;1649;53.672;10.064;2023-06-14T11:52:31;11.30;;;3.67;;
3274;SDS011;1649;53.672;10.064;2023-06-14T11:54:56;8.63;;;3.70;;
3274;SDS011;1649;53.672;10.064;2023-06-14T11:57:23;8.70;;;3.67;;
3274;SDS011;1649;53.672;10.064;2023-06-14T11:59:49;8.50;;;3.83;;
3274;SDS011;1649;53.672;10.064;2023-06-14T12:02:15;10.50;;;4.13;;
3274;SDS011;1649;53.672;10.064;2023-06-14T12:04:42;6.60;;;3.37;;
3274;SDS011;1649;53.672;10.064;2023-06-14T12:07:08;5.23;;;3.17;;
3274;SDS011;1649;53.672;10.064;2023-06-14T12:09:37;9.40;;;3.70;;
3274;SDS011;1649;53.672;10.064;2023-06-14T12:12:02;6.70;;;4.00;;
3274;SDS011;1649;53.672;10.064;2023-06-14T12:14:31;6.50;;;3.60;;
3274;SDS011;1649;53.672;10.064;2023-06-14T12:17:04;7.40;;;3.73;;
3274;SDS011;1649;53.672;10.064;2023-06-14T12:19:33;8.50;;;3.83;;
3274;SDS011;1649;53.672;10.064;2023-06-14T12:22:06;7.10;;;4.10;;
3274;SDS011;1649;53.672;10.064;2023-06-14T12:24:33;10.10;;;4.27;;
3274;SDS011;1649;53.672;10.064;2023-06-14T12:26:59;8.20;;;4.07;;
3274;SDS011;1649;53.672;10.064;2023-06-14T12:29:25;7.63;;;4.10;;
3274;SDS011;1649;53.672;10.064;2023-06-14T12:31:50;7.73;;;4.07;;
3274;SDS011;1649;53.672;10.064;2023-06-14T12:34:18;10.00;;;4.00;;
3274;SDS011;1649;53.672;10.064;2023-06-14T12:36:44;9.17;;;3.80;;
3274;SDS011;1649;53.672;10.064;2023-06-14T12:39:11;8.53;;;4.40;;
3274;SDS011;1649;53.672;10.064;2023-06-14T12:41:37;8.33;;;3.70;;
3274;SDS011;1649;53.672;10.064;2023-06-14T12:44:02;7.53;;;4.00;;
3274;SDS011;1649;53.672;10.064;2023-06-14T12:46:30;6.70;;;4.20;;
3274;SDS011;1649;53.672;10.064;2023-06-14T12:48:56;8.87;;;4.03;;
3274;SDS011;1649;53.672;10.064;2023-06-14T12:51:21;11.23;;;4.20;;
3274;SDS011;1649;53.672;10.064;2023-06-14T12:53:48;9.13;;;3.80;;
3274;SDS011;1649;53.672;10.064;2023-06-14T12:56:14;8.30;;;3.80;;
3274;SDS011;1649;53.672;10.064;2023-06-14T12:58:40;7.80;;;3.60;;
3274;SDS011;1649;53.672;10.064;2023-06-14T13:01:06;12.00;;;3.67;;
3274;SDS011;1649;53.672;10.064;2023-06-14T13:03:32;7.73;;;3.83;;
3274;SDS011;1649;53.672;10.064;2023-06-14T13:06:00;7.47;;;4.10;;
3274;SDS011;1649;53.672;10.064;2023-06-14T13:08:27;11.10;;;3.73;;
3274;SDS011;1649;53.672;10.064;2023-06-14T13:10:52;6.77;;;3.70;;
3274;SDS011;1649;53.672;10.064;2023-06-14T13:13:18;9.57;;;3.70;;
3274;SDS011;1649;53.672;10.064;2023-06-14T13:15:44;6.40;;;3.40;;
3274;SDS011;1649;53.672;10.064;2023-06-14T13:18:11;7.47;;;3.87;;
3274;SDS011;1649;53.672;10.064;2023-06-14T13:20:38;7.97;;;3.47;;
3274;SDS011;1649;53.672;10.064;2023-06-14T13:23:04;6.23;;;3.50;;
3274;SDS011;1649;53.672;10.064;2023-06-14T13:25:32;5.60;;;3.30;;
3274;SDS011;1649;53.672;10.064;2023-06-14T13:28:04;11.00;;;3.60;;
3274;SDS011;1649;53.672;10.064;2023-06-14T13:30:30;7.87;;;3.80;;
3274;SDS011;1649;53.672;10.064;2023-06-14T13:32:56;6.10;;;3.20;;
3274;SDS011;1649;53.672;10.064;2023-06-14T13:35:22;7.83;;;3.63;;
3274;SDS011;1649;53.672;10.064;2023-06-14T13:37:48;7.00;;;4.10;;
3274;SDS011;1649;53.672;10.064;2023-06-14T13:40:13;6.17;;;3.80;;
3274;SDS011;1649;53.672;10.064;2023-06-14T13:42:39;8.60;;;3.70;;
3274;SDS011;1649;53.672;10.064;2023-06-14T13:45:05;5.93;;;3.40;;
3274;SDS011;1649;53.672;10.064;2023-06-14T13:47:31;7.43;;;3.63;;
3274;SDS011;1649;53.672;10.064;2023-06-14T13:49:57;9.17;;;3.50;;
3274;SDS011;1649;53.672;10.064;2023-06-14T13:52:23;7.47;;;3.33;;
3274;SDS011;1649;53.672;10.064;2023-06-14T13:54:49;8.03;;;4.00;;
3274;SDS011;1649;53.672;10.064;2023-06-14T13:57:15;6.90;;;3.53;;
3274;SDS011;1649;53.672;10.064;2023-06-14T13:59:41;6.70;;;3.70;;
3274;SDS011;1649;53.672;10.064;2023-06-14T14:02:06;7.27;;;3.80;;
3274;SDS011;1649;53.672;10.064;2023-06-14T14:04:33;6.37;;;3.30;;
3274;SDS011;1649;53.672;10.064;2023-06-14T14:07:00;6.90;;;3.20;;
3274;SDS011;1649;53.672;10.064;2023-06-14T14:09:26;6.37;;;3.23;;
3274;SDS011;1649;53.672;10.064;2023-06-14T14:11:51;6.27;;;3.07;;
3274;SDS011;1649;53.672;10.064;2023-06-14T14:14:17;6.37;;;3.43;;
3274;SDS011;1649;53.672;10.064;2023-06-14T14:16:42;7.70;;;3.40;;
3274;SDS011;1649;53.672;10.064;2023-06-14T14:19:08;8.20;;;3.50;;
3274;SDS011;1649;53.672;10.064;2023-06-14T14:21:33;7.07;;;3.30;;
3274;SDS011;1649;53.672;10.064;2023-06-14T14:24:00;6.93;;;3.83;;
3274;SDS011;1649;53.672;10.064;2023-06-14T14:26:25;10.07;;;3.70;;
3274;SDS011;1649;53.672;10.064;2023-06-14T14:28:51;6.37;;;3.30;;
3274;SDS011;1649;53.672;10.064;2023-06-14T14:31:17;7.80;;;3.27;;
3274;SDS011;1649;53.672;10.064;2023-06-14T14:33:44;9.70;;;3.13;;
3274;SDS011;1649;53.672;10.064;2023-06-14T14:36:09;6.20;;;3.43;;
3274;SDS011;1649;53.672;10.064;2023-06-14T14:38:35;7.50;;;3.20;;
3274;SDS011;1649;53.672;10.064;2023-06-14T14:41:00;6.10;;;3.43;;
3274;SDS011;1649;53.672;10.064;2023-06-14T14:43:26;9.87;;;3.90;;
3274;SDS011;1649;53.672;10.064;2023-06-14T14:45:51;8.50;;;3.40;;
3274;SDS011;1649;53.672;10.064;2023-06-14T14:48:17;7.33;;;3.30;;
3274;SDS011;1649;53.672;10.064;2023-06-14T14:50:43;9.17;;;3.63;;
3274;SDS011;1649;53.672;10.064;2023-06-14T14:53:08;6.73;;;3.33;;
3274;SDS011;1649;53.672;10.064;2023-06-14T14:55:34;14.47;;;4.40;;
3274;SDS011;1649;53.672;10.064;2023-06-14T14:58:02;7.80;;;3.57;;
3274;SDS011;1649;53.672;10.064;2023-06-14T15:00:28;7.43;;;3.73;;
3274;SDS011;1649;53.672;10.064;2023-06-14T15:02:53;7.00;;;3.20;;
3274;SDS011;1649;53.672;10.064;2023-06-14T15:05:19;9.40;;;3.40;;
3274;SDS011;1649;53.672;10.064;2023-06-14T15:07:45;9.90;;;3.70;;